sensor_id;sensor_type;location;lat;lon;timestamp;temperature;humidity
65036;DHT22;51603;49.300;8.880;2023-06-14T00:01:32;16.10;67.00
65036;DHT22;51603;49.300;8.880;2023-06-14T00:04:00;16.10;66.50
65036;DHT22;51603;49.300;8.880;2023-06-14T00:06:28;16.10;67.00
65036;DHT22;51603;49.300;8.880;2023-06-14T00:08:53;16.10;67.00
65036;DHT22;51603;49.300;8.880;2023-06-14T00:11:19;16.10;66.70
65036;DHT22;51603;49.300;8.880;2023-06-14T00:13:45;16.10;67.10
65036;DHT22;51603;49.300;8.880;2023-06-14T00:16:11;16.10;67.30
65036;DHT22;51603;49.300;8.880;2023-06-14T00:18:37;16.10;66.90
65036;DHT22;51603;49.300;8.880;2023-06-14T00:21:03;16.10;67.30
65036;DHT22;51603;49.300;8.880;2023-06-14T00:23:29;16.10;67.80
65036;DHT22;51603;49.300;8.880;2023-06-14T00:25:55;16.00;67.10
65036;DHT22;51603;49.300;8.880;2023-06-14T00:28:20;16.10;66.80
65036;DHT22;51603;49.300;8.880;2023-06-14T00:30:46;16.10;67.20
65036;DHT22;51603;49.300;8.880;2023-06-14T00:33:12;16.00;67.40
65036;DHT22;51603;49.300;8.880;2023-06-14T00:35:38;16.00;67.20
65036;DHT22;51603;49.300;8.880;2023-06-14T00:38:03;16.10;67.50
65036;DHT22;51603;49.300;8.880;2023-06-14T00:40:29;16.00;67.50
65036;DHT22;51603;49.300;8.880;2023-06-14T00:42:54;16.00;68.10
65036;DHT22;51603;49.300;8.880;2023-06-14T00:45:20;16.00;67.30
65036;DHT22;51603;49.300;8.880;2023-06-14T00:47:46;16.00;68.00
65036;DHT22;51603;49.300;8.880;2023-06-14T00:50:13;15.90;69.50
65036;DHT22;51603;49.300;8.880;2023-06-14T00:52:39;16.00;68.40
65036;DHT22;51603;49.300;8.880;2023-06-14T00:55:05;15.90;68.50
65036;DHT22;51603;49.300;8.880;2023-06-14T00:57:31;15.90;69.00
65036;DHT22;51603;49.300;8.880;2023-06-14T00:59:57;15.90;69.00
65036;DHT22;51603;49.300;8.880;2023-06-14T01:02:23;15.90;69.10
65036;DHT22;51603;49.300;8.880;2023-06-14T01:04:50;15.90;70.00
65036;DHT22;51603;49.300;8.880;2023-06-14T01:13:03;15.80;69.60
65036;DHT22;51603;49.300;8.880;2023-06-14T01:15:31;15.80;69.50
65036;DHT22;51603;49.300;8.880;2023-06-14T01:17:57;15.70;69.60
65036;DHT22;51603;49.300;8.880;2023-06-14T01:20:29;15.70;69.60
65036;DHT22;51603;49.300;8.880;2023-06-14T01:22:56;15.70;69.80
65036;DHT22;51603;49.300;8.880;2023-06-14T01:25:22;15.70;69.70
65036;DHT22;51603;49.300;8.880;2023-06-14T01:27:59;15.70;69.60
65036;DHT22;51603;49.300;8.880;2023-06-14T01:30:26;15.70;68.10
65036;DHT22;51603;49.300;8.880;2023-06-14T01:32:54;15.70;69.60
65036;DHT22;51603;49.300;8.880;2023-06-14T01:35:20;15.70;68.40
65036;DHT22;51603;49.300;8.880;2023-06-14T01:37:47;15.60;68.70
65036;DHT22;51603;49.300;8.880;2023-06-14T01:40:14;15.60;69.00
65036;DHT22;51603;49.300;8.880;2023-06-14T01:42:40;15.60;70.20
65036;DHT22;51603;49.300;8.880;2023-06-14T01:45:07;15.60;70.00
65036;DHT22;51603;49.300;8.880;2023-06-14T01:47:34;15.60;71.30
65036;DHT22;51603;49.300;8.880;2023-06-14T01:50:04;15.60;71.20
65036;DHT22;51603;49.300;8.880;2023-06-14T01:52:30;15.50;70.70
65036;DHT22;51603;49.300;8.880;2023-06-14T01:54:55;15.50;70.60
65036;DHT22;51603;49.300;8.880;2023-06-14T01:57:22;15.50;70.70
65036;DHT22;51603;49.300;8.880;2023-06-14T01:59:48;15.40;71.00
65036;DHT22;51603;49.300;8.880;2023-06-14T02:02:14;15.50;71.10
65036;DHT22;51603;49.300;8.880;2023-06-14T02:04:41;15.40;71.00
65036;DHT22;51603;49.300;8.880;2023-06-14T02:07:07;15.40;71.50
65036;DHT22;51603;49.300;8.880;2023-06-14T02:09:33;15.30;71.80
65036;DHT22;51603;49.300;8.880;2023-06-14T02:12:00;15.30;71.90
65036;DHT22;51603;49.300;8.880;2023-06-14T02:14:26;15.30;72.00
65036;DHT22;51603;49.300;8.880;2023-06-14T02:16:51;15.30;73.20
65036;DHT22;51603;49.300;8.880;2023-06-14T02:19:19;15.30;73.30
65036;DHT22;51603;49.300;8.880;2023-06-14T02:21:45;15.30;73.60
65036;DHT22;51603;49.300;8.880;2023-06-14T02:24:11;15.20;73.00
65036;DHT22;51603;49.300;8.880;2023-06-14T02:26:37;15.30;75.10
65036;DHT22;51603;49.300;8.880;2023-06-14T02:29:04;15.10;72.80
65036;DHT22;51603;49.300;8.880;2023-06-14T02:31:31;15.10;74.50
65036;DHT22;51603;49.300;8.880;2023-06-14T02:33:57;15.10;75.30
65036;DHT22;51603;49.300;8.880;2023-06-14T02:36:22;15.10;75.60
65036;DHT22;51603;49.300;8.880;2023-06-14T02:38:48;15.00;75.60
65036;DHT22;51603;49.300;8.880;2023-06-14T02:41:14;15.00;75.20
65036;DHT22;51603;49.300;8.880;2023-06-14T02:43:39;15.00;75.90
65036;DHT22;51603;49.300;8.880;2023-06-14T02:46:05;15.00;76.40
65036;DHT22;51603;49.300;8.880;2023-06-14T02:48:31;15.00;75.80
65036;DHT22;51603;49.300;8.880;2023-06-14T02:50:57;14.90;76.60
65036;DHT22;51603;49.300;8.880;2023-06-14T02:53:22;14.90;77.50
65036;DHT22;51603;49.300;8.880;2023-06-14T02:55:48;14.80;77.40
65036;DHT22;51603;49.300;8.880;2023-06-14T02:58:14;14.80;78.00
65036;DHT22;51603;49.300;8.880;2023-06-14T03:00:39;14.80;78.30
65036;DHT22;51603;49.300;8.880;2023-06-14T03:03:06;14.80;78.20
65036;DHT22;51603;49.300;8.880;2023-06-14T03:05:43;14.80;79.30
65036;DHT22;51603;49.300;8.880;2023-06-14T03:08:11;14.70;79.70
65036;DHT22;51603;49.300;8.880;2023-06-14T03:10:42;14.70;78.90
65036;DHT22;51603;49.300;8.880;2023-06-14T03:13:08;14.60;79.20
65036;DHT22;51603;49.300;8.880;2023-06-14T03:15:36;14.60;79.50
65036;DHT22;51603;49.300;8.880;2023-06-14T03:18:01;14.60;80.10
65036;DHT22;51603;49.300;8.880;2023-06-14T03:20:29;14.50;80.20
65036;DHT22;51603;49.300;8.880;2023-06-14T03:22:59;14.50;81.30
65036;DHT22;51603;49.300;8.880;2023-06-14T03:25:25;14.50;81.10
65036;DHT22;51603;49.300;8.880;2023-06-14T03:27:51;14.50;81.40
65036;DHT22;51603;49.300;8.880;2023-06-14T03:30:17;14.50;82.20
65036;DHT22;51603;49.300;8.880;2023-06-14T03:32:42;14.40;82.00
65036;DHT22;51603;49.300;8.880;2023-06-14T03:35:08;14.40;82.50
65036;DHT22;51603;49.300;8.880;2023-06-14T03:37:35;14.40;82.90
65036;DHT22;51603;49.300;8.880;2023-06-14T03:40:01;14.40;83.00
65036;DHT22;51603;49.300;8.880;2023-06-14T03:42:26;14.40;83.30
65036;DHT22;51603;49.300;8.880;2023-06-14T03:44:52;14.40;82.80
65036;DHT22;51603;49.300;8.880;2023-06-14T03:47:17;14.40;82.20
65036;DHT22;51603;49.300;8.880;2023-06-14T03:49:43;14.40;83.00
65036;DHT22;51603;49.300;8.880;2023-06-14T03:52:08;14.40;83.60
65036;DHT22;51603;49.300;8.880;2023-06-14T03:54:34;14.40;84.70
65036;DHT22;51603;49.300;8.880;2023-06-14T03:56:59;14.40;85.10
65036;DHT22;51603;49.300;8.880;2023-06-14T03:59:25;14.40;85.10
65036;DHT22;51603;49.300;8.880;2023-06-14T04:01:51;14.40;85.70
65036;DHT22;51603;49.300;8.880;2023-06-14T04:04:18;14.50;85.60
65036;DHT22;51603;49.300;8.880;2023-06-14T04:06:44;14.50;85.10
65036;DHT22;51603;49.300;8.880;2023-06-14T04:09:09;14.50;85.50
65036;DHT22;51603;49.300;8.880;2023-06-14T04:11:35;14.50;85.30
65036;DHT22;51603;49.300;8.880;2023-06-14T04:14:01;14.50;85.30
65036;DHT22;51603;49.300;8.880;2023-06-14T04:16:27;14.50;86.30
65036;DHT22;51603;49.300;8.880;2023-06-14T04:18:54;14.50;87.00
65036;DHT22;51603;49.300;8.880;2023-06-14T04:21:20;14.50;87.70
65036;DHT22;51603;49.300;8.880;2023-06-14T04:23:46;14.50;88.00
65036;DHT22;51603;49.300;8.880;2023-06-14T04:26:12;14.60;88.80
65036;DHT22;51603;49.300;8.880;2023-06-14T04:28:37;14.50;89.10
65036;DHT22;51603;49.300;8.880;2023-06-14T04:31:06;14.50;89.70
65036;DHT22;51603;49.300;8.880;2023-06-14T04:33:35;14.50;90.00
65036;DHT22;51603;49.300;8.880;2023-06-14T04:36:11;14.50;89.90
65036;DHT22;51603;49.300;8.880;2023-06-14T04:38:43;14.50;90.40
65036;DHT22;51603;49.300;8.880;2023-06-14T04:41:10;14.60;90.40
65036;DHT22;51603;49.300;8.880;2023-06-14T04:43:37;14.60;90.40
65036;DHT22;51603;49.300;8.880;2023-06-14T04:46:06;14.70;90.50
65036;DHT22;51603;49.300;8.880;2023-06-14T04:48:40;14.70;90.00
65036;DHT22;51603;49.300;8.880;2023-06-14T04:51:08;14.70;90.00
65036;DHT22;51603;49.300;8.880;2023-06-14T04:53:34;14.80;89.80
65036;DHT22;51603;49.300;8.880;2023-06-14T04:56:00;14.80;89.80
65036;DHT22;51603;49.300;8.880;2023-06-14T04:58:29;14.90;89.80
65036;DHT22;51603;49.300;8.880;2023-06-14T05:00:55;14.90;89.80
65036;DHT22;51603;49.300;8.880;2023-06-14T05:03:25;15.00;90.10
65036;DHT22;51603;49.300;8.880;2023-06-14T05:05:51;15.00;90.30
65036;DHT22;51603;49.300;8.880;2023-06-14T05:08:18;15.10;90.50
65036;DHT22;51603;49.300;8.880;2023-06-14T05:10:45;15.20;90.60
65036;DHT22;51603;49.300;8.880;2023-06-14T05:13:11;15.30;90.30
65036;DHT22;51603;49.300;8.880;2023-06-14T05:15:36;15.30;90.20
65036;DHT22;51603;49.300;8.880;2023-06-14T05:18:02;15.40;90.30
65036;DHT22;51603;49.300;8.880;2023-06-14T05:20:28;15.50;90.50
65036;DHT22;51603;49.300;8.880;2023-06-14T05:22:54;15.50;90.50
65036;DHT22;51603;49.300;8.880;2023-06-14T05:25:20;15.70;90.50
65036;DHT22;51603;49.300;8.880;2023-06-14T05:27:46;15.70;90.20
65036;DHT22;51603;49.300;8.880;2023-06-14T05:30:13;15.80;90.50
65036;DHT22;51603;49.300;8.880;2023-06-14T05:32:39;15.80;90.40
65036;DHT22;51603;49.300;8.880;2023-06-14T05:35:06;15.90;90.40
65036;DHT22;51603;49.300;8.880;2023-06-14T05:37:31;16.00;90.40
65036;DHT22;51603;49.300;8.880;2023-06-14T05:39:57;16.10;88.90
65036;DHT22;51603;49.300;8.880;2023-06-14T05:42:23;16.20;89.70
65036;DHT22;51603;49.300;8.880;2023-06-14T05:44:48;16.30;88.90
65036;DHT22;51603;49.300;8.880;2023-06-14T05:47:14;16.40;89.70
65036;DHT22;51603;49.300;8.880;2023-06-14T05:49:40;16.40;90.00
65036;DHT22;51603;49.300;8.880;2023-06-14T05:52:06;16.50;90.30
65036;DHT22;51603;49.300;8.880;2023-06-14T05:54:32;16.60;89.70
65036;DHT22;51603;49.300;8.880;2023-06-14T05:56:57;16.70;88.40
65036;DHT22;51603;49.300;8.880;2023-06-14T05:59:27;16.80;88.30
65036;DHT22;51603;49.300;8.880;2023-06-14T06:01:53;16.80;86.70
65036;DHT22;51603;49.300;8.880;2023-06-14T06:04:18;16.90;86.70
65036;DHT22;51603;49.300;8.880;2023-06-14T06:06:45;17.00;85.00
65036;DHT22;51603;49.300;8.880;2023-06-14T06:09:10;17.10;85.00
65036;DHT22;51603;49.300;8.880;2023-06-14T06:11:36;17.20;82.80
65036;DHT22;51603;49.300;8.880;2023-06-14T06:14:01;17.20;82.10
65036;DHT22;51603;49.300;8.880;2023-06-14T06:16:27;17.30;84.40
65036;DHT22;51603;49.300;8.880;2023-06-14T06:18:53;17.30;82.00
65036;DHT22;51603;49.300;8.880;2023-06-14T06:21:18;17.40;81.70
65036;DHT22;51603;49.300;8.880;2023-06-14T06:23:44;17.50;82.80
65036;DHT22;51603;49.300;8.880;2023-06-14T06:26:09;17.50;81.40
65036;DHT22;51603;49.300;8.880;2023-06-14T06:28:35;17.60;82.00
65036;DHT22;51603;49.300;8.880;2023-06-14T06:31:01;17.70;81.40
65036;DHT22;51603;49.300;8.880;2023-06-14T06:33:26;17.80;79.40
65036;DHT22;51603;49.300;8.880;2023-06-14T06:35:52;17.80;81.70
65036;DHT22;51603;49.300;8.880;2023-06-14T06:38:17;17.90;80.80
65036;DHT22;51603;49.300;8.880;2023-06-14T06:40:44;18.00;78.60
65036;DHT22;51603;49.300;8.880;2023-06-14T06:43:10;18.10;80.60
65036;DHT22;51603;49.300;8.880;2023-06-14T06:45:41;18.20;81.00
65036;DHT22;51603;49.300;8.880;2023-06-14T06:48:07;18.20;77.80
65036;DHT22;51603;49.300;8.880;2023-06-14T06:50:32;18.30;79.20
65036;DHT22;51603;49.300;8.880;2023-06-14T06:52:58;18.30;76.30
65036;DHT22;51603;49.300;8.880;2023-06-14T06:55:23;18.50;73.90
65036;DHT22;51603;49.300;8.880;2023-06-14T06:57:49;18.50;76.40
65036;DHT22;51603;49.300;8.880;2023-06-14T07:00:15;18.60;75.30
65036;DHT22;51603;49.300;8.880;2023-06-14T07:02:43;18.70;75.10
65036;DHT22;51603;49.300;8.880;2023-06-14T07:05:08;18.80;75.60
65036;DHT22;51603;49.300;8.880;2023-06-14T07:07:34;18.80;73.70
65036;DHT22;51603;49.300;8.880;2023-06-14T07:10:00;18.90;73.30
65036;DHT22;51603;49.300;8.880;2023-06-14T07:12:26;19.00;73.30
65036;DHT22;51603;49.300;8.880;2023-06-14T07:14:51;19.00;71.30
65036;DHT22;51603;49.300;8.880;2023-06-14T07:17:17;19.10;72.90
65036;DHT22;51603;49.300;8.880;2023-06-14T07:19:43;19.20;74.10
65036;DHT22;51603;49.300;8.880;2023-06-14T07:22:08;19.30;70.90
65036;DHT22;51603;49.300;8.880;2023-06-14T07:24:34;19.40;73.70
65036;DHT22;51603;49.300;8.880;2023-06-14T07:27:01;19.60;72.60
65036;DHT22;51603;49.300;8.880;2023-06-14T07:29:28;19.70;70.10
65036;DHT22;51603;49.300;8.880;2023-06-14T07:31:54;19.70;69.00
65036;DHT22;51603;49.300;8.880;2023-06-14T07:34:19;19.80;70.20
65036;DHT22;51603;49.300;8.880;2023-06-14T07:36:45;19.80;69.30
65036;DHT22;51603;49.300;8.880;2023-06-14T07:39:11;19.90;68.10
65036;DHT22;51603;49.300;8.880;2023-06-14T07:41:37;20.00;71.50
65036;DHT22;51603;49.300;8.880;2023-06-14T07:44:02;20.10;67.10
65036;DHT22;51603;49.300;8.880;2023-06-14T07:46:28;20.30;68.70
65036;DHT22;51603;49.300;8.880;2023-06-14T07:48:54;20.30;67.20
65036;DHT22;51603;49.300;8.880;2023-06-14T07:51:19;20.50;69.00
65036;DHT22;51603;49.300;8.880;2023-06-14T07:53:45;20.60;67.30
65036;DHT22;51603;49.300;8.880;2023-06-14T07:56:11;20.70;68.80
65036;DHT22;51603;49.300;8.880;2023-06-14T07:58:37;20.70;66.40
65036;DHT22;51603;49.300;8.880;2023-06-14T08:01:02;20.80;67.70
65036;DHT22;51603;49.300;8.880;2023-06-14T08:03:31;20.90;68.80
65036;DHT22;51603;49.300;8.880;2023-06-14T08:05:57;21.00;66.50
65036;DHT22;51603;49.300;8.880;2023-06-14T08:08:23;21.00;66.80
65036;DHT22;51603;49.300;8.880;2023-06-14T08:10:48;21.10;64.90
65036;DHT22;51603;49.300;8.880;2023-06-14T08:13:14;21.20;64.70
65036;DHT22;51603;49.300;8.880;2023-06-14T08:15:40;21.30;65.30
65036;DHT22;51603;49.300;8.880;2023-06-14T08:18:05;21.30;65.20
65036;DHT22;51603;49.300;8.880;2023-06-14T08:20:31;21.60;68.10
65036;DHT22;51603;49.300;8.880;2023-06-14T08:22:57;21.70;61.70
65036;DHT22;51603;49.300;8.880;2023-06-14T08:25:23;21.90;62.90
65036;DHT22;51603;49.300;8.880;2023-06-14T08:27:49;21.90;63.00
65036;DHT22;51603;49.300;8.880;2023-06-14T08:30:15;22.00;63.50
65036;DHT22;51603;49.300;8.880;2023-06-14T08:32:42;22.10;65.40
65036;DHT22;51603;49.300;8.880;2023-06-14T08:35:08;22.20;62.10
65036;DHT22;51603;49.300;8.880;2023-06-14T08:37:38;22.40;64.50
65036;DHT22;51603;49.300;8.880;2023-06-14T08:40:27;22.80;63.30
65036;DHT22;51603;49.300;8.880;2023-06-14T08:42:54;23.00;59.80
65036;DHT22;51603;49.300;8.880;2023-06-14T08:45:21;23.00;58.20
65036;DHT22;51603;49.300;8.880;2023-06-14T08:47:47;23.00;59.10
65036;DHT22;51603;49.300;8.880;2023-06-14T08:50:26;23.10;58.90
65036;DHT22;51603;49.300;8.880;2023-06-14T08:52:56;23.20;58.30
65036;DHT22;51603;49.300;8.880;2023-06-14T08:55:25;23.20;53.90
65036;DHT22;51603;49.300;8.880;2023-06-14T08:57:54;23.20;54.80
65036;DHT22;51603;49.300;8.880;2023-06-14T09:00:20;23.30;54.50
65036;DHT22;51603;49.300;8.880;2023-06-14T09:02:46;23.50;57.10
65036;DHT22;51603;49.300;8.880;2023-06-14T09:05:13;23.60;55.30
65036;DHT22;51603;49.300;8.880;2023-06-14T09:07:41;23.70;56.20
65036;DHT22;51603;49.300;8.880;2023-06-14T09:10:12;24.00;54.20
65036;DHT22;51603;49.300;8.880;2023-06-14T09:12:38;24.10;56.20
65036;DHT22;51603;49.300;8.880;2023-06-14T09:15:05;24.10;55.30
65036;DHT22;51603;49.300;8.880;2023-06-14T09:17:38;24.10;53.50
65036;DHT22;51603;49.300;8.880;2023-06-14T09:20:05;24.20;51.70
65036;DHT22;51603;49.300;8.880;2023-06-14T09:22:33;24.00;52.70
65036;DHT22;51603;49.300;8.880;2023-06-14T09:24:59;24.20;51.30
65036;DHT22;51603;49.300;8.880;2023-06-14T09:27:28;24.20;50.40
65036;DHT22;51603;49.300;8.880;2023-06-14T09:29:54;24.40;51.10
65036;DHT22;51603;49.300;8.880;2023-06-14T09:32:21;24.20;52.50
65036;DHT22;51603;49.300;8.880;2023-06-14T09:34:47;24.50;52.00
65036;DHT22;51603;49.300;8.880;2023-06-14T09:37:13;24.70;51.80
65036;DHT22;51603;49.300;8.880;2023-06-14T09:39:51;24.90;49.00
65036;DHT22;51603;49.300;8.880;2023-06-14T09:42:18;24.80;49.30
65036;DHT22;51603;49.300;8.880;2023-06-14T09:44:47;24.80;51.30
65036;DHT22;51603;49.300;8.880;2023-06-14T09:47:15;25.00;50.20
65036;DHT22;51603;49.300;8.880;2023-06-14T09:49:41;25.20;49.00
65036;DHT22;51603;49.300;8.880;2023-06-14T09:52:14;25.10;47.50
65036;DHT22;51603;49.300;8.880;2023-06-14T09:54:42;25.40;49.10
65036;DHT22;51603;49.300;8.880;2023-06-14T09:57:12;25.50;49.40
65036;DHT22;51603;49.300;8.880;2023-06-14T09:59:42;25.60;47.30
65036;DHT22;51603;49.300;8.880;2023-06-14T10:05:08;25.90;47.50
65036;DHT22;51603;49.300;8.880;2023-06-14T10:07:42;26.00;45.60
65036;DHT22;51603;49.300;8.880;2023-06-14T10:10:08;26.10;45.70
65036;DHT22;51603;49.300;8.880;2023-06-14T10:12:34;26.40;46.20
65036;DHT22;51603;49.300;8.880;2023-06-14T10:15:00;26.40;46.60
65036;DHT22;51603;49.300;8.880;2023-06-14T10:17:34;26.30;43.30
65036;DHT22;51603;49.300;8.880;2023-06-14T10:20:45;26.00;42.60
65036;DHT22;51603;49.300;8.880;2023-06-14T10:23:17;25.90;46.10
65036;DHT22;51603;49.300;8.880;2023-06-14T10:25:44;26.30;44.30
65036;DHT22;51603;49.300;8.880;2023-06-14T10:31:02;26.40;44.40
65036;DHT22;51603;49.300;8.880;2023-06-14T10:33:34;26.60;42.80
65036;DHT22;51603;49.300;8.880;2023-06-14T10:41:27;26.30;46.00
65036;DHT22;51603;49.300;8.880;2023-06-14T10:46:39;25.90;42.90
65036;DHT22;51603;49.300;8.880;2023-06-14T10:49:05;26.10;43.70
65036;DHT22;51603;49.300;8.880;2023-06-14T10:51:39;26.40;44.40
65036;DHT22;51603;49.300;8.880;2023-06-14T10:54:12;26.50;41.50
65036;DHT22;51603;49.300;8.880;2023-06-14T10:56:52;26.60;43.60
65036;DHT22;51603;49.300;8.880;2023-06-14T10:59:19;26.40;41.60
65036;DHT22;51603;49.300;8.880;2023-06-14T11:04:49;26.60;42.60
65036;DHT22;51603;49.300;8.880;2023-06-14T11:13:02;27.50;40.00
65036;DHT22;51603;49.300;8.880;2023-06-14T11:15:29;27.40;40.90
65036;DHT22;51603;49.300;8.880;2023-06-14T11:17:55;27.40;42.60
65036;DHT22;51603;49.300;8.880;2023-06-14T11:20:25;27.80;41.40
65036;DHT22;51603;49.300;8.880;2023-06-14T11:22:51;27.80;39.30
65036;DHT22;51603;49.300;8.880;2023-06-14T11:25:17;27.80;38.40
65036;DHT22;51603;49.300;8.880;2023-06-14T11:27:43;27.20;37.70
65036;DHT22;51603;49.300;8.880;2023-06-14T11:30:09;27.30;39.30
65036;DHT22;51603;49.300;8.880;2023-06-14T11:32:36;27.90;41.40
65036;DHT22;51603;49.300;8.880;2023-06-14T11:35:03;27.70;37.40
65036;DHT22;51603;49.300;8.880;2023-06-14T11:37:30;27.90;39.70
65036;DHT22;51603;49.300;8.880;2023-06-14T11:39:58;28.10;39.50
65036;DHT22;51603;49.300;8.880;2023-06-14T11:42:26;28.30;40.70
65036;DHT22;51603;49.300;8.880;2023-06-14T11:44:53;27.90;38.60
65036;DHT22;51603;49.300;8.880;2023-06-14T11:47:18;27.80;39.80
65036;DHT22;51603;49.300;8.880;2023-06-14T11:49:44;28.00;37.70
65036;DHT22;51603;49.300;8.880;2023-06-14T11:52:11;28.00;37.90
65036;DHT22;51603;49.300;8.880;2023-06-14T11:54:37;27.90;38.90
65036;DHT22;51603;49.300;8.880;2023-06-14T11:57:03;27.60;36.70
65036;DHT22;51603;49.300;8.880;2023-06-14T11:59:29;27.50;38.80
65036;DHT22;51603;49.300;8.880;2023-06-14T12:01:56;27.90;39.80
65036;DHT22;51603;49.300;8.880;2023-06-14T12:04:27;28.20;37.40
65036;DHT22;51603;49.300;8.880;2023-06-14T12:06:52;28.30;39.20
65036;DHT22;51603;49.300;8.880;2023-06-14T12:09:21;28.50;39.60
65036;DHT22;51603;49.300;8.880;2023-06-14T12:11:49;28.60;38.30
65036;DHT22;51603;49.300;8.880;2023-06-14T12:14:15;29.00;39.20
65036;DHT22;51603;49.300;8.880;2023-06-14T12:16:42;29.00;35.90
65036;DHT22;51603;49.300;8.880;2023-06-14T12:21:37;28.20;37.40
65036;DHT22;51603;49.300;8.880;2023-06-14T12:24:04;28.50;38.90
65036;DHT22;51603;49.300;8.880;2023-06-14T12:26:32;29.20;39.40
65036;DHT22;51603;49.300;8.880;2023-06-14T12:28:58;29.70;38.70
65036;DHT22;51603;49.300;8.880;2023-06-14T12:31:23;29.60;35.60
65036;DHT22;51603;49.300;8.880;2023-06-14T12:33:49;29.30;36.70
65036;DHT22;51603;49.300;8.880;2023-06-14T12:36:16;29.30;36.20
65036;DHT22;51603;49.300;8.880;2023-06-14T12:38:42;28.30;34.50
65036;DHT22;51603;49.300;8.880;2023-06-14T12:41:08;27.80;38.40
65036;DHT22;51603;49.300;8.880;2023-06-14T12:43:34;28.40;38.70
65036;DHT22;51603;49.300;8.880;2023-06-14T12:46:00;28.70;38.60
65036;DHT22;51603;49.300;8.880;2023-06-14T12:48:25;28.50;37.20
65036;DHT22;51603;49.300;8.880;2023-06-14T12:50:53;28.00;37.70
65036;DHT22;51603;49.300;8.880;2023-06-14T12:53:18;27.90;39.20
65036;DHT22;51603;49.300;8.880;2023-06-14T12:55:44;28.00;39.60
65036;DHT22;51603;49.300;8.880;2023-06-14T12:58:10;28.30;39.50
65036;DHT22;51603;49.300;8.880;2023-06-14T13:00:38;28.30;38.00
65036;DHT22;51603;49.300;8.880;2023-06-14T13:03:03;28.60;37.60
65036;DHT22;51603;49.300;8.880;2023-06-14T13:05:29;28.60;35.20
65036;DHT22;51603;49.300;8.880;2023-06-14T13:07:56;28.40;37.30
65036;DHT22;51603;49.300;8.880;2023-06-14T13:10:22;28.00;38.30
65036;DHT22;51603;49.300;8.880;2023-06-14T13:12:47;27.50;38.40
65036;DHT22;51603;49.300;8.880;2023-06-14T13:15:13;27.20;36.80
65036;DHT22;51603;49.300;8.880;2023-06-14T13:17:39;26.90;37.80
65036;DHT22;51603;49.300;8.880;2023-06-14T13:20:08;27.30;40.00
65036;DHT22;51603;49.300;8.880;2023-06-14T13:22:34;27.70;36.70
65036;DHT22;51603;49.300;8.880;2023-06-14T13:25:00;27.50;35.80
65036;DHT22;51603;49.300;8.880;2023-06-14T13:27:26;28.00;38.10
65036;DHT22;51603;49.300;8.880;2023-06-14T13:29:52;28.60;40.10
65036;DHT22;51603;49.300;8.880;2023-06-14T13:32:18;28.40;34.70
65036;DHT22;51603;49.300;8.880;2023-06-14T13:34:44;28.70;37.10
65036;DHT22;51603;49.300;8.880;2023-06-14T13:37:09;28.80;36.30
65036;DHT22;51603;49.300;8.880;2023-06-14T13:39:35;29.00;36.90
65036;DHT22;51603;49.300;8.880;2023-06-14T13:42:03;29.40;37.70
65036;DHT22;51603;49.300;8.880;2023-06-14T13:44:28;29.30;34.10
65036;DHT22;51603;49.300;8.880;2023-06-14T13:46:54;29.70;36.40
65036;DHT22;51603;49.300;8.880;2023-06-14T13:49:20;29.60;35.40
65036;DHT22;51603;49.300;8.880;2023-06-14T13:51:46;29.70;38.40
65036;DHT22;51603;49.300;8.880;2023-06-14T13:54:15;29.50;37.10
65036;DHT22;51603;49.300;8.880;2023-06-14T13:56:41;28.90;36.70
65036;DHT22;51603;49.300;8.880;2023-06-14T13:59:06;28.40;38.10
65036;DHT22;51603;49.300;8.880;2023-06-14T14:01:32;28.10;38.60
65036;DHT22;51603;49.300;8.880;2023-06-14T14:03:57;27.70;38.20
65036;DHT22;51603;49.300;8.880;2023-06-14T14:06:24;27.40;40.30
65036;DHT22;51603;49.300;8.880;2023-06-14T14:08:50;27.20;38.40
65036;DHT22;51603;49.300;8.880;2023-06-14T14:11:16;27.10;38.70
65036;DHT22;51603;49.300;8.880;2023-06-14T14:13:42;27.10;40.10
65036;DHT22;51603;49.300;8.880;2023-06-14T14:16:08;27.30;38.50
65036;DHT22;51603;49.300;8.880;2023-06-14T14:18:33;27.60;38.40
65036;DHT22;51603;49.300;8.880;2023-06-14T14:20:59;27.80;37.30
65036;DHT22;51603;49.300;8.880;2023-06-14T14:23:26;27.90;37.20
65036;DHT22;51603;49.300;8.880;2023-06-14T14:25:51;28.10;36.80
65036;DHT22;51603;49.300;8.880;2023-06-14T14:28:17;28.00;35.90
65036;DHT22;51603;49.300;8.880;2023-06-14T14:30:44;27.90;37.20
65036;DHT22;51603;49.300;8.880;2023-06-14T14:33:11;28.30;37.00
65036;DHT22;51603;49.300;8.880;2023-06-14T14:35:41;28.50;37.30
65036;DHT22;51603;49.300;8.880;2023-06-14T14:38:07;28.60;36.20
65036;DHT22;51603;49.300;8.880;2023-06-14T14:40:33;29.00;37.60
65036;DHT22;51603;49.300;8.880;2023-06-14T14:42:59;29.20;36.30
65036;DHT22;51603;49.300;8.880;2023-06-14T14:45:24;29.40;36.20
65036;DHT22;51603;49.300;8.880;2023-06-14T14:47:50;29.80;38.30
65036;DHT22;51603;49.300;8.880;2023-06-14T14:50:15;29.80;34.10
65036;DHT22;51603;49.300;8.880;2023-06-14T14:52:41;29.80;37.00
65036;DHT22;51603;49.300;8.880;2023-06-14T14:55:08;29.50;34.60
65036;DHT22;51603;49.300;8.880;2023-06-14T14:57:33;29.50;35.40
65036;DHT22;51603;49.300;8.880;2023-06-14T14:59:59;29.40;34.90
65036;DHT22;51603;49.300;8.880;2023-06-14T15:02:24;29.00;35.30
65036;DHT22;51603;49.300;8.880;2023-06-14T15:04:50;28.40;37.30
65036;DHT22;51603;49.300;8.880;2023-06-14T15:07:15;28.60;36.40
65036;DHT22;51603;49.300;8.880;2023-06-14T15:09:41;29.00;35.60
65036;DHT22;51603;49.300;8.880;2023-06-14T15:12:07;29.00;35.90
65036;DHT22;51603;49.300;8.880;2023-06-14T15:14:33;29.20;36.00
65036;DHT22;51603;49.300;8.880;2023-06-14T15:16:59;29.20;36.80
65036;DHT22;51603;49.300;8.880;2023-06-14T15:19:27;29.40;35.80
65036;DHT22;51603;49.300;8.880;2023-06-14T15:21:52;29.50;36.70
65036;DHT22;51603;49.300;8.880;2023-06-14T15:24:18;29.80;35.50
65036;DHT22;51603;49.300;8.880;2023-06-14T15:26:43;29.70;36.00
65036;DHT22;51603;49.300;8.880;2023-06-14T15:29:09;29.70;35.40
65036;DHT22;51603;49.300;8.880;2023-06-14T15:31:34;29.30;35.80
65036;DHT22;51603;49.300;8.880;2023-06-14T15:34:00;28.90;36.40
65036;DHT22;51603;49.300;8.880;2023-06-14T15:36:25;28.20;36.50
65036;DHT22;51603;49.300;8.880;2023-06-14T15:38:52;28.30;38.00
65036;DHT22;51603;49.300;8.880;2023-06-14T15:41:17;28.60;37.80
65036;DHT22;51603;49.300;8.880;2023-06-14T15:43:43;29.00;38.70
65036;DHT22;51603;49.300;8.880;2023-06-14T15:46:08;29.10;37.40
65036;DHT22;51603;49.300;8.880;2023-06-14T15:48:34;29.20;36.90
65036;DHT22;51603;49.300;8.880;2023-06-14T15:51:00;29.40;37.30
65036;DHT22;51603;49.300;8.880;2023-06-14T15:53:25;29.40;37.50
65036;DHT22;51603;49.300;8.880;2023-06-14T15:55:51;29.40;35.20
65036;DHT22;51603;49.300;8.880;2023-06-14T15:58:16;29.40;36.40